sensor_id;sensor_type;location;lat;lon;timestamp;temperature;humidity
7720;DHT22;3902;49.474;8.616;2023-05-10T00:01:06;16.10;99.90
7720;DHT22;3902;49.474;8.616;2023-05-10T00:03:31;16.10;99.90
7720;DHT22;3902;49.474;8.616;2023-05-10T00:05:57;16.00;99.90
7720;DHT22;3902;49.474;8.616;2023-05-10T00:08:22;16.00;99.90
7720;DHT22;3902;49.474;8.616;2023-05-10T00:10:48;16.10;99.90
7720;DHT22;3902;49.474;8.616;2023-05-10T00:13:14;16.10;99.90
7720;DHT22;3902;49.474;8.616;2023-05-10T00:15:39;16.10;99.90
7720;DHT22;3902;49.474;8.616;2023-05-10T00:18:05;16.00;99.90
7720;DHT22;3902;49.474;8.616;2023-05-10T00:20:30;16.00;99.90
7720;DHT22;3902;49.474;8.616;2023-05-10T00:22:56;16.10;99.90
7720;DHT22;3902;49.474;8.616;2023-05-10T00:25:21;16.10;99.90
7720;DHT22;3902;49.474;8.616;2023-05-10T00:27:47;16.00;99.90
7720;DHT22;3902;49.474;8.616;2023-05-10T00:30:13;15.90;99.90
7720;DHT22;3902;49.474;8.616;2023-05-10T00:32:39;15.90;99.90
7720;DHT22;3902;49.474;8.616;2023-05-10T00:35:05;15.90;99.90
7720;DHT22;3902;49.474;8.616;2023-05-10T00:37:30;15.80;99.90
7720;DHT22;3902;49.474;8.616;2023-05-10T00:39:56;15.80;99.90
7720;DHT22;3902;49.474;8.616;2023-05-10T00:42:21;15.80;99.90
7720;DHT22;3902;49.474;8.616;2023-05-10T00:44:47;15.70;99.90
7720;DHT22;3902;49.474;8.616;2023-05-10T00:47:13;15.80;99.90
7720;DHT22;3902;49.474;8.616;2023-05-10T00:49:38;15.80;99.90
7720;DHT22;3902;49.474;8.616;2023-05-10T00:52:04;15.80;99.90
7720;DHT22;3902;49.474;8.616;2023-05-10T00:54:30;15.80;99.90
7720;DHT22;3902;49.474;8.616;2023-05-10T00:56:56;15.80;99.90
7720;DHT22;3902;49.474;8.616;2023-05-10T00:59:22;15.80;99.90
7720;DHT22;3902;49.474;8.616;2023-05-10T01:01:47;15.70;99.90
7720;DHT22;3902;49.474;8.616;2023-05-10T01:04:14;15.70;99.90
7720;DHT22;3902;49.474;8.616;2023-05-10T01:06:43;15.60;99.90
7720;DHT22;3902;49.474;8.616;2023-05-10T01:09:09;15.70;99.90
7720;DHT22;3902;49.474;8.616;2023-05-10T01:11:36;15.80;99.90
7720;DHT22;3902;49.474;8.616;2023-05-10T01:14:03;15.80;99.90
7720;DHT22;3902;49.474;8.616;2023-05-10T01:16:33;15.80;99.90
7720;DHT22;3902;49.474;8.616;2023-05-10T01:18:59;15.80;99.90
7720;DHT22;3902;49.474;8.616;2023-05-10T01:21:36;15.80;99.90
7720;DHT22;3902;49.474;8.616;2023-05-10T01:26:52;15.80;99.90
7720;DHT22;3902;49.474;8.616;2023-05-10T01:35:03;15.60;99.90
7720;DHT22;3902;49.474;8.616;2023-05-10T01:37:44;15.70;99.90
7720;DHT22;3902;49.474;8.616;2023-05-10T01:40:19;15.80;99.90
7720;DHT22;3902;49.474;8.616;2023-05-10T01:42:54;15.80;99.90
7720;DHT22;3902;49.474;8.616;2023-05-10T01:45:31;15.80;99.90
7720;DHT22;3902;49.474;8.616;2023-05-10T01:48:08;15.80;99.90
7720;DHT22;3902;49.474;8.616;2023-05-10T01:50:36;15.80;99.90
7720;DHT22;3902;49.474;8.616;2023-05-10T01:53:05;15.70;99.90
7720;DHT22;3902;49.474;8.616;2023-05-10T01:55:35;15.70;99.90
7720;DHT22;3902;49.474;8.616;2023-05-10T01:58:09;15.70;99.90
7720;DHT22;3902;49.474;8.616;2023-05-10T02:00:35;15.70;99.90
7720;DHT22;3902;49.474;8.616;2023-05-10T02:03:08;15.70;99.90
7720;DHT22;3902;49.474;8.616;2023-05-10T02:05:35;15.70;99.90
7720;DHT22;3902;49.474;8.616;2023-05-10T02:08:03;15.70;99.90
7720;DHT22;3902;49.474;8.616;2023-05-10T02:10:30;15.70;99.90
7720;DHT22;3902;49.474;8.616;2023-05-10T02:12:58;15.70;99.90
7720;DHT22;3902;49.474;8.616;2023-05-10T02:15:25;15.70;99.90
7720;DHT22;3902;49.474;8.616;2023-05-10T02:17:54;15.70;99.90
7720;DHT22;3902;49.474;8.616;2023-05-10T02:20:20;15.70;99.90
7720;DHT22;3902;49.474;8.616;2023-05-10T02:22:49;15.70;99.90
7720;DHT22;3902;49.474;8.616;2023-05-10T02:25:16;15.70;99.90
7720;DHT22;3902;49.474;8.616;2023-05-10T02:27:44;15.70;99.90
7720;DHT22;3902;49.474;8.616;2023-05-10T02:30:10;15.70;99.90
7720;DHT22;3902;49.474;8.616;2023-05-10T02:32:36;15.70;99.90
7720;DHT22;3902;49.474;8.616;2023-05-10T02:35:03;15.70;99.90
7720;DHT22;3902;49.474;8.616;2023-05-10T02:37:29;15.70;99.90
7720;DHT22;3902;49.474;8.616;2023-05-10T02:39:56;15.70;99.90
7720;DHT22;3902;49.474;8.616;2023-05-10T02:42:27;15.60;99.90
7720;DHT22;3902;49.474;8.616;2023-05-10T02:45:05;15.60;99.90
7720;DHT22;3902;49.474;8.616;2023-05-10T02:47:32;15.60;99.90
7720;DHT22;3902;49.474;8.616;2023-05-10T02:49:58;15.60;99.90
7720;DHT22;3902;49.474;8.616;2023-05-10T02:52:27;15.60;99.90
7720;DHT22;3902;49.474;8.616;2023-05-10T02:54:56;15.60;99.90
7720;DHT22;3902;49.474;8.616;2023-05-10T02:57:27;15.60;99.90
7720;DHT22;3902;49.474;8.616;2023-05-10T02:59:54;15.60;99.90
7720;DHT22;3902;49.474;8.616;2023-05-10T03:02:20;15.60;99.90
7720;DHT22;3902;49.474;8.616;2023-05-10T03:04:46;15.60;99.90
7720;DHT22;3902;49.474;8.616;2023-05-10T03:07:11;15.60;99.90
7720;DHT22;3902;49.474;8.616;2023-05-10T03:09:37;15.60;99.90
7720;DHT22;3902;49.474;8.616;2023-05-10T03:12:29;15.60;99.90
7720;DHT22;3902;49.474;8.616;2023-05-10T03:15:19;15.60;99.90
7720;DHT22;3902;49.474;8.616;2023-05-10T03:17:59;15.60;99.90
7720;DHT22;3902;49.474;8.616;2023-05-10T03:20:35;15.60;99.90
7720;DHT22;3902;49.474;8.616;2023-05-10T03:23:11;15.60;99.90
7720;DHT22;3902;49.474;8.616;2023-05-10T03:25:37;15.60;99.90
7720;DHT22;3902;49.474;8.616;2023-05-10T03:28:04;15.60;99.90
7720;DHT22;3902;49.474;8.616;2023-05-10T03:30:30;15.50;99.90
7720;DHT22;3902;49.474;8.616;2023-05-10T03:32:56;15.50;99.90
7720;DHT22;3902;49.474;8.616;2023-05-10T03:35:23;15.50;99.90
7720;DHT22;3902;49.474;8.616;2023-05-10T03:37:49;15.50;99.90
7720;DHT22;3902;49.474;8.616;2023-05-10T03:40:14;15.50;99.90
7720;DHT22;3902;49.474;8.616;2023-05-10T03:42:40;15.40;99.90
7720;DHT22;3902;49.474;8.616;2023-05-10T03:45:06;15.40;99.90
7720;DHT22;3902;49.474;8.616;2023-05-10T03:47:32;15.40;99.90
7720;DHT22;3902;49.474;8.616;2023-05-10T03:49:58;15.30;99.90
7720;DHT22;3902;49.474;8.616;2023-05-10T03:52:23;15.30;99.90
7720;DHT22;3902;49.474;8.616;2023-05-10T03:54:49;15.40;99.90
7720;DHT22;3902;49.474;8.616;2023-05-10T03:57:14;15.40;99.90
7720;DHT22;3902;49.474;8.616;2023-05-10T03:59:40;15.30;99.90
7720;DHT22;3902;49.474;8.616;2023-05-10T04:02:05;15.20;99.90
7720;DHT22;3902;49.474;8.616;2023-05-10T04:04:31;15.20;99.90
7720;DHT22;3902;49.474;8.616;2023-05-10T04:06:56;15.20;99.90
7720;DHT22;3902;49.474;8.616;2023-05-10T04:09:22;15.20;99.90
7720;DHT22;3902;49.474;8.616;2023-05-10T04:11:47;15.20;99.90
7720;DHT22;3902;49.474;8.616;2023-05-10T04:14:13;15.20;99.90
7720;DHT22;3902;49.474;8.616;2023-05-10T04:16:38;15.20;99.90
7720;DHT22;3902;49.474;8.616;2023-05-10T04:19:04;15.20;99.90
7720;DHT22;3902;49.474;8.616;2023-05-10T04:21:29;15.20;99.90
7720;DHT22;3902;49.474;8.616;2023-05-10T04:23:55;15.20;99.90
7720;DHT22;3902;49.474;8.616;2023-05-10T04:26:21;15.10;99.90
7720;DHT22;3902;49.474;8.616;2023-05-10T04:28:47;15.20;99.90
7720;DHT22;3902;49.474;8.616;2023-05-10T04:31:12;15.10;99.90
7720;DHT22;3902;49.474;8.616;2023-05-10T04:33:38;15.10;99.90
7720;DHT22;3902;49.474;8.616;2023-05-10T04:36:04;15.10;99.90
7720;DHT22;3902;49.474;8.616;2023-05-10T04:38:30;15.10;99.90
7720;DHT22;3902;49.474;8.616;2023-05-10T04:41:06;15.10;99.90
7720;DHT22;3902;49.474;8.616;2023-05-10T04:43:32;15.20;99.90
7720;DHT22;3902;49.474;8.616;2023-05-10T04:45:58;15.20;99.90
7720;DHT22;3902;49.474;8.616;2023-05-10T04:48:24;15.10;99.90
7720;DHT22;3902;49.474;8.616;2023-05-10T04:50:49;15.10;99.90
7720;DHT22;3902;49.474;8.616;2023-05-10T04:53:15;15.20;99.90
7720;DHT22;3902;49.474;8.616;2023-05-10T04:55:40;15.20;99.90
7720;DHT22;3902;49.474;8.616;2023-05-10T04:58:05;15.20;99.90
7720;DHT22;3902;49.474;8.616;2023-05-10T05:00:31;15.20;99.90
7720;DHT22;3902;49.474;8.616;2023-05-10T05:02:58;15.20;99.90
7720;DHT22;3902;49.474;8.616;2023-05-10T05:05:23;15.20;99.90
7720;DHT22;3902;49.474;8.616;2023-05-10T05:07:49;15.20;99.90
7720;DHT22;3902;49.474;8.616;2023-05-10T05:10:14;15.30;99.90
7720;DHT22;3902;49.474;8.616;2023-05-10T05:12:40;15.30;99.90
7720;DHT22;3902;49.474;8.616;2023-05-10T05:15:06;15.30;99.90
7720;DHT22;3902;49.474;8.616;2023-05-10T05:17:33;15.30;99.90
7720;DHT22;3902;49.474;8.616;2023-05-10T05:19:59;15.40;99.90
7720;DHT22;3902;49.474;8.616;2023-05-10T05:22:24;15.30;99.90
7720;DHT22;3902;49.474;8.616;2023-05-10T05:24:56;15.30;99.90
7720;DHT22;3902;49.474;8.616;2023-05-10T05:27:22;15.40;99.90
7720;DHT22;3902;49.474;8.616;2023-05-10T05:29:50;15.40;99.90
7720;DHT22;3902;49.474;8.616;2023-05-10T05:32:16;15.40;99.90
7720;DHT22;3902;49.474;8.616;2023-05-10T05:34:43;15.40;99.90
7720;DHT22;3902;49.474;8.616;2023-05-10T05:37:15;15.40;99.90
7720;DHT22;3902;49.474;8.616;2023-05-10T05:39:42;15.50;99.90
7720;DHT22;3902;49.474;8.616;2023-05-10T05:42:09;15.50;99.90
7720;DHT22;3902;49.474;8.616;2023-05-10T05:44:34;15.50;99.90
7720;DHT22;3902;49.474;8.616;2023-05-10T05:47:00;15.50;99.90
7720;DHT22;3902;49.474;8.616;2023-05-10T05:49:26;15.50;99.90
7720;DHT22;3902;49.474;8.616;2023-05-10T05:51:51;15.50;99.90
7720;DHT22;3902;49.474;8.616;2023-05-10T05:54:17;15.60;99.90
7720;DHT22;3902;49.474;8.616;2023-05-10T05:56:42;15.60;99.90
7720;DHT22;3902;49.474;8.616;2023-05-10T05:59:09;15.60;99.90
7720;DHT22;3902;49.474;8.616;2023-05-10T06:01:35;15.60;99.90
7720;DHT22;3902;49.474;8.616;2023-05-10T06:04:00;15.70;99.90
7720;DHT22;3902;49.474;8.616;2023-05-10T06:06:26;15.70;99.90
7720;DHT22;3902;49.474;8.616;2023-05-10T06:08:52;15.70;99.90
7720;DHT22;3902;49.474;8.616;2023-05-10T06:11:17;15.70;99.90
7720;DHT22;3902;49.474;8.616;2023-05-10T06:13:43;15.70;99.90
7720;DHT22;3902;49.474;8.616;2023-05-10T06:16:08;15.70;99.90
7720;DHT22;3902;49.474;8.616;2023-05-10T06:18:34;15.70;99.90
7720;DHT22;3902;49.474;8.616;2023-05-10T06:21:00;15.70;99.90
7720;DHT22;3902;49.474;8.616;2023-05-10T06:23:25;15.70;99.90
7720;DHT22;3902;49.474;8.616;2023-05-10T06:25:51;15.70;99.90
7720;DHT22;3902;49.474;8.616;2023-05-10T06:28:17;15.70;99.90
7720;DHT22;3902;49.474;8.616;2023-05-10T06:30:43;15.60;99.90
7720;DHT22;3902;49.474;8.616;2023-05-10T06:33:08;15.60;99.90
7720;DHT22;3902;49.474;8.616;2023-05-10T06:35:34;15.60;99.90
7720;DHT22;3902;49.474;8.616;2023-05-10T06:37:59;15.60;99.90
7720;DHT22;3902;49.474;8.616;2023-05-10T06:40:25;15.60;99.90
7720;DHT22;3902;49.474;8.616;2023-05-10T06:42:50;15.70;99.90
7720;DHT22;3902;49.474;8.616;2023-05-10T06:45:16;15.70;99.90
7720;DHT22;3902;49.474;8.616;2023-05-10T06:47:42;15.70;99.90
7720;DHT22;3902;49.474;8.616;2023-05-10T06:50:09;15.60;99.90
7720;DHT22;3902;49.474;8.616;2023-05-10T06:52:35;15.70;99.90
7720;DHT22;3902;49.474;8.616;2023-05-10T06:55:01;15.70;99.90
7720;DHT22;3902;49.474;8.616;2023-05-10T06:57:26;15.80;99.90
7720;DHT22;3902;49.474;8.616;2023-05-10T06:59:52;15.80;99.90
7720;DHT22;3902;49.474;8.616;2023-05-10T07:02:18;15.80;99.90
7720;DHT22;3902;49.474;8.616;2023-05-10T07:04:43;15.80;99.90
7720;DHT22;3902;49.474;8.616;2023-05-10T07:07:09;15.90;99.90
7720;DHT22;3902;49.474;8.616;2023-05-10T07:09:35;15.90;99.90
7720;DHT22;3902;49.474;8.616;2023-05-10T07:12:00;15.90;99.90
7720;DHT22;3902;49.474;8.616;2023-05-10T07:14:27;15.90;99.90
7720;DHT22;3902;49.474;8.616;2023-05-10T07:16:53;16.00;99.90
7720;DHT22;3902;49.474;8.616;2023-05-10T07:19:18;16.00;99.90
7720;DHT22;3902;49.474;8.616;2023-05-10T07:21:45;16.10;99.90
7720;DHT22;3902;49.474;8.616;2023-05-10T07:24:10;16.20;99.90
7720;DHT22;3902;49.474;8.616;2023-05-10T07:26:36;16.20;99.90
7720;DHT22;3902;49.474;8.616;2023-05-10T07:29:01;16.20;99.90
7720;DHT22;3902;49.474;8.616;2023-05-10T07:31:27;16.10;99.90
7720;DHT22;3902;49.474;8.616;2023-05-10T07:33:53;16.20;99.90
7720;DHT22;3902;49.474;8.616;2023-05-10T07:36:18;16.40;99.90
7720;DHT22;3902;49.474;8.616;2023-05-10T07:38:44;16.40;99.90
7720;DHT22;3902;49.474;8.616;2023-05-10T07:41:11;16.50;99.90
7720;DHT22;3902;49.474;8.616;2023-05-10T07:43:37;16.50;99.90
7720;DHT22;3902;49.474;8.616;2023-05-10T07:46:02;16.50;99.90
7720;DHT22;3902;49.474;8.616;2023-05-10T07:48:28;16.50;99.90
7720;DHT22;3902;49.474;8.616;2023-05-10T07:50:53;16.60;99.90
7720;DHT22;3902;49.474;8.616;2023-05-10T07:53:19;16.60;99.90
7720;DHT22;3902;49.474;8.616;2023-05-10T07:55:50;16.60;99.90
7720;DHT22;3902;49.474;8.616;2023-05-10T07:58:15;16.50;99.90
7720;DHT22;3902;49.474;8.616;2023-05-10T08:00:41;16.70;99.90
7720;DHT22;3902;49.474;8.616;2023-05-10T08:03:06;16.60;99.90
7720;DHT22;3902;49.474;8.616;2023-05-10T08:05:32;16.60;99.90
7720;DHT22;3902;49.474;8.616;2023-05-10T08:07:57;16.60;99.90
7720;DHT22;3902;49.474;8.616;2023-05-10T08:10:24;16.50;99.90
7720;DHT22;3902;49.474;8.616;2023-05-10T08:12:50;16.60;99.90
7720;DHT22;3902;49.474;8.616;2023-05-10T08:15:15;16.50;99.90
7720;DHT22;3902;49.474;8.616;2023-05-10T08:17:41;16.50;99.90
7720;DHT22;3902;49.474;8.616;2023-05-10T08:20:07;16.50;99.90
7720;DHT22;3902;49.474;8.616;2023-05-10T08:22:33;16.50;99.90
7720;DHT22;3902;49.474;8.616;2023-05-10T08:24:58;16.50;99.90
7720;DHT22;3902;49.474;8.616;2023-05-10T08:27:24;16.60;99.90
7720;DHT22;3902;49.474;8.616;2023-05-10T08:29:49;16.60;99.90
7720;DHT22;3902;49.474;8.616;2023-05-10T08:32:15;16.60;99.90
7720;DHT22;3902;49.474;8.616;2023-05-10T08:34:40;16.60;99.90
7720;DHT22;3902;49.474;8.616;2023-05-10T08:37:07;16.60;99.90
7720;DHT22;3902;49.474;8.616;2023-05-10T08:39:35;16.60;99.90
7720;DHT22;3902;49.474;8.616;2023-05-10T08:42:02;16.60;99.90
7720;DHT22;3902;49.474;8.616;2023-05-10T08:44:32;16.70;99.90
7720;DHT22;3902;49.474;8.616;2023-05-10T08:46:59;16.70;99.90
7720;DHT22;3902;49.474;8.616;2023-05-10T08:49:27;16.60;99.90
7720;DHT22;3902;49.474;8.616;2023-05-10T08:51:56;16.70;99.90
7720;DHT22;3902;49.474;8.616;2023-05-10T08:54:22;16.70;99.90
7720;DHT22;3902;49.474;8.616;2023-05-10T08:56:48;16.80;99.90
7720;DHT22;3902;49.474;8.616;2023-05-10T08:59:14;16.90;99.90
7720;DHT22;3902;49.474;8.616;2023-05-10T09:01:40;16.90;99.90
7720;DHT22;3902;49.474;8.616;2023-05-10T09:04:08;16.90;99.90
7720;DHT22;3902;49.474;8.616;2023-05-10T09:06:33;16.70;99.90
7720;DHT22;3902;49.474;8.616;2023-05-10T09:08:59;16.60;99.90
7720;DHT22;3902;49.474;8.616;2023-05-10T09:11:25;16.50;99.90
7720;DHT22;3902;49.474;8.616;2023-05-10T09:13:54;16.40;99.90
7720;DHT22;3902;49.474;8.616;2023-05-10T09:16:20;16.40;99.90
7720;DHT22;3902;49.474;8.616;2023-05-10T09:18:46;16.40;99.90
7720;DHT22;3902;49.474;8.616;2023-05-10T09:21:12;16.40;99.90
7720;DHT22;3902;49.474;8.616;2023-05-10T09:23:43;16.40;99.90
7720;DHT22;3902;49.474;8.616;2023-05-10T09:26:08;16.40;99.90
7720;DHT22;3902;49.474;8.616;2023-05-10T09:28:34;16.30;99.90
7720;DHT22;3902;49.474;8.616;2023-05-10T09:31:14;16.30;99.90
7720;DHT22;3902;49.474;8.616;2023-05-10T09:33:47;16.20;99.90
7720;DHT22;3902;49.474;8.616;2023-05-10T09:36:13;16.20;99.90
7720;DHT22;3902;49.474;8.616;2023-05-10T09:41:24;16.20;99.90
7720;DHT22;3902;49.474;8.616;2023-05-10T09:43:50;16.20;99.90
7720;DHT22;3902;49.474;8.616;2023-05-10T09:46:20;16.30;99.90
7720;DHT22;3902;49.474;8.616;2023-05-10T09:48:47;16.30;99.90
7720;DHT22;3902;49.474;8.616;2023-05-10T09:51:24;16.40;99.90
7720;DHT22;3902;49.474;8.616;2023-05-10T09:54:13;16.40;99.90
7720;DHT22;3902;49.474;8.616;2023-05-10T09:56:39;16.40;99.90
7720;DHT22;3902;49.474;8.616;2023-05-10T09:59:07;16.40;99.90
7720;DHT22;3902;49.474;8.616;2023-05-10T10:01:33;16.30;99.90
7720;DHT22;3902;49.474;8.616;2023-05-10T10:04:03;16.30;99.90
7720;DHT22;3902;49.474;8.616;2023-05-10T10:06:29;16.40;99.90
7720;DHT22;3902;49.474;8.616;2023-05-10T10:08:56;16.30;99.90
7720;DHT22;3902;49.474;8.616;2023-05-10T10:11:23;16.40;99.90
7720;DHT22;3902;49.474;8.616;2023-05-10T10:13:49;16.40;99.90
7720;DHT22;3902;49.474;8.616;2023-05-10T10:16:15;16.50;99.90
7720;DHT22;3902;49.474;8.616;2023-05-10T10:18:42;16.50;99.90
7720;DHT22;3902;49.474;8.616;2023-05-10T10:21:07;16.50;99.90
7720;DHT22;3902;49.474;8.616;2023-05-10T10:23:36;16.40;99.90
7720;DHT22;3902;49.474;8.616;2023-05-10T10:26:03;16.50;99.90
7720;DHT22;3902;49.474;8.616;2023-05-10T10:28:51;16.40;99.90
7720;DHT22;3902;49.474;8.616;2023-05-10T10:31:32;16.50;99.90
7720;DHT22;3902;49.474;8.616;2023-05-10T10:34:07;16.50;99.90
7720;DHT22;3902;49.474;8.616;2023-05-10T10:36:44;16.50;99.90
7720;DHT22;3902;49.474;8.616;2023-05-10T10:39:11;16.30;99.90
7720;DHT22;3902;49.474;8.616;2023-05-10T10:41:39;16.30;99.90
7720;DHT22;3902;49.474;8.616;2023-05-10T10:49:48;16.30;99.90
7720;DHT22;3902;49.474;8.616;2023-05-10T10:52:28;16.30;99.90
7720;DHT22;3902;49.474;8.616;2023-05-10T10:55:06;16.40;99.90
7720;DHT22;3902;49.474;8.616;2023-05-10T10:57:54;16.50;99.90
7720;DHT22;3902;49.474;8.616;2023-05-10T11:00:30;16.70;99.90
7720;DHT22;3902;49.474;8.616;2023-05-10T11:07:55;17.30;99.90
7720;DHT22;3902;49.474;8.616;2023-05-10T11:10:25;17.40;99.90
7720;DHT22;3902;49.474;8.616;2023-05-10T11:15:17;17.50;99.90
7720;DHT22;3902;49.474;8.616;2023-05-10T11:17:43;17.60;99.90
7720;DHT22;3902;49.474;8.616;2023-05-10T11:20:09;17.80;99.90
7720;DHT22;3902;49.474;8.616;2023-05-10T11:22:52;18.00;99.90
7720;DHT22;3902;49.474;8.616;2023-05-10T11:25:18;18.20;99.90
7720;DHT22;3902;49.474;8.616;2023-05-10T11:27:43;18.30;99.90
7720;DHT22;3902;49.474;8.616;2023-05-10T11:30:10;18.30;99.90
7720;DHT22;3902;49.474;8.616;2023-05-10T11:32:40;18.40;99.90
7720;DHT22;3902;49.474;8.616;2023-05-10T11:35:10;18.40;99.90
7720;DHT22;3902;49.474;8.616;2023-05-10T11:37:36;18.40;99.90
7720;DHT22;3902;49.474;8.616;2023-05-10T11:40:02;18.40;99.90
7720;DHT22;3902;49.474;8.616;2023-05-10T11:42:28;18.30;99.90
7720;DHT22;3902;49.474;8.616;2023-05-10T11:44:55;18.40;99.90
7720;DHT22;3902;49.474;8.616;2023-05-10T11:47:21;18.60;99.90
7720;DHT22;3902;49.474;8.616;2023-05-10T11:49:47;18.70;99.90
7720;DHT22;3902;49.474;8.616;2023-05-10T11:52:13;18.80;99.90
7720;DHT22;3902;49.474;8.616;2023-05-10T11:54:52;18.80;99.90
7720;DHT22;3902;49.474;8.616;2023-05-10T11:57:26;18.80;99.90
7720;DHT22;3902;49.474;8.616;2023-05-10T11:59:57;18.70;99.90
7720;DHT22;3902;49.474;8.616;2023-05-10T12:02:23;18.60;99.90
7720;DHT22;3902;49.474;8.616;2023-05-10T12:04:50;18.60;99.90
7720;DHT22;3902;49.474;8.616;2023-05-10T12:07:16;18.40;99.90
7720;DHT22;3902;49.474;8.616;2023-05-10T12:09:43;18.30;99.90
7720;DHT22;3902;49.474;8.616;2023-05-10T12:12:10;18.40;99.90
7720;DHT22;3902;49.474;8.616;2023-05-10T12:14:36;18.50;99.90
7720;DHT22;3902;49.474;8.616;2023-05-10T12:17:01;18.80;99.90
7720;DHT22;3902;49.474;8.616;2023-05-10T12:19:27;18.80;99.90
7720;DHT22;3902;49.474;8.616;2023-05-10T12:21:52;18.80;99.90
7720;DHT22;3902;49.474;8.616;2023-05-10T12:24:18;18.90;99.90
7720;DHT22;3902;49.474;8.616;2023-05-10T12:26:45;19.00;99.90
7720;DHT22;3902;49.474;8.616;2023-05-10T12:29:15;19.00;99.90
7720;DHT22;3902;49.474;8.616;2023-05-10T12:31:58;19.20;99.90
7720;DHT22;3902;49.474;8.616;2023-05-10T12:34:30;19.20;99.90
7720;DHT22;3902;49.474;8.616;2023-05-10T12:36:56;19.10;99.90
7720;DHT22;3902;49.474;8.616;2023-05-10T12:39:22;19.00;99.90
7720;DHT22;3902;49.474;8.616;2023-05-10T12:41:47;18.90;99.90
7720;DHT22;3902;49.474;8.616;2023-05-10T12:44:13;18.70;99.90
7720;DHT22;3902;49.474;8.616;2023-05-10T12:46:38;18.80;99.90
7720;DHT22;3902;49.474;8.616;2023-05-10T12:49:04;18.90;99.90
7720;DHT22;3902;49.474;8.616;2023-05-10T12:51:29;19.10;99.90
7720;DHT22;3902;49.474;8.616;2023-05-10T12:53:56;18.80;99.90
7720;DHT22;3902;49.474;8.616;2023-05-10T12:56:21;18.80;99.90
7720;DHT22;3902;49.474;8.616;2023-05-10T12:58:46;18.80;99.90
7720;DHT22;3902;49.474;8.616;2023-05-10T13:01:13;18.80;99.90
7720;DHT22;3902;49.474;8.616;2023-05-10T13:03:39;18.80;99.90
7720;DHT22;3902;49.474;8.616;2023-05-10T13:06:05;18.90;99.90
7720;DHT22;3902;49.474;8.616;2023-05-10T13:08:31;19.00;99.90
7720;DHT22;3902;49.474;8.616;2023-05-10T13:10:59;18.90;99.90
7720;DHT22;3902;49.474;8.616;2023-05-10T13:13:25;19.00;99.90
7720;DHT22;3902;49.474;8.616;2023-05-10T13:15:51;19.10;99.90
7720;DHT22;3902;49.474;8.616;2023-05-10T13:18:17;19.30;99.90
7720;DHT22;3902;49.474;8.616;2023-05-10T13:20:42;19.40;99.90
7720;DHT22;3902;49.474;8.616;2023-05-10T13:23:09;19.40;99.90
7720;DHT22;3902;49.474;8.616;2023-05-10T13:25:35;19.40;99.90
7720;DHT22;3902;49.474;8.616;2023-05-10T13:28:01;19.50;99.90
7720;DHT22;3902;49.474;8.616;2023-05-10T13:30:27;19.60;99.90
7720;DHT22;3902;49.474;8.616;2023-05-10T13:32:52;19.50;99.90
7720;DHT22;3902;49.474;8.616;2023-05-10T13:35:17;19.40;99.90
7720;DHT22;3902;49.474;8.616;2023-05-10T13:37:43;19.10;99.90
7720;DHT22;3902;49.474;8.616;2023-05-10T13:40:09;19.10;99.90
7720;DHT22;3902;49.474;8.616;2023-05-10T13:42:35;19.10;99.90
7720;DHT22;3902;49.474;8.616;2023-05-10T13:45:00;19.30;99.90
7720;DHT22;3902;49.474;8.616;2023-05-10T13:47:27;19.30;99.90
7720;DHT22;3902;49.474;8.616;2023-05-10T13:49:52;19.40;99.90
7720;DHT22;3902;49.474;8.616;2023-05-10T13:52:18;19.50;99.90
7720;DHT22;3902;49.474;8.616;2023-05-10T13:54:44;19.50;99.90
7720;DHT22;3902;49.474;8.616;2023-05-10T13:57:09;19.50;99.90
7720;DHT22;3902;49.474;8.616;2023-05-10T13:59:37;19.50;99.90
7720;DHT22;3902;49.474;8.616;2023-05-10T14:02:02;19.70;99.90
7720;DHT22;3902;49.474;8.616;2023-05-10T14:04:29;19.70;99.90
7720;DHT22;3902;49.474;8.616;2023-05-10T14:06:54;19.80;99.90
7720;DHT22;3902;49.474;8.616;2023-05-10T14:09:20;19.80;99.90
7720;DHT22;3902;49.474;8.616;2023-05-10T14:11:46;19.90;99.90
7720;DHT22;3902;49.474;8.616;2023-05-10T14:14:12;19.80;99.90
7720;DHT22;3902;49.474;8.616;2023-05-10T14:16:42;19.80;99.90
7720;DHT22;3902;49.474;8.616;2023-05-10T14:19:08;19.70;99.90
7720;DHT22;3902;49.474;8.616;2023-05-10T14:21:33;19.60;99.90
7720;DHT22;3902;49.474;8.616;2023-05-10T14:23:59;19.70;99.90
7720;DHT22;3902;49.474;8.616;2023-05-10T14:26:24;19.70;99.90
7720;DHT22;3902;49.474;8.616;2023-05-10T14:28:51;19.70;99.90
7720;DHT22;3902;49.474;8.616;2023-05-10T14:31:17;19.70;99.90
7720;DHT22;3902;49.474;8.616;2023-05-10T14:33:44;19.80;99.90
7720;DHT22;3902;49.474;8.616;2023-05-10T14:36:10;19.80;99.90
7720;DHT22;3902;49.474;8.616;2023-05-10T14:38:35;19.90;99.90
7720;DHT22;3902;49.474;8.616;2023-05-10T14:41:01;19.90;99.90
7720;DHT22;3902;49.474;8.616;2023-05-10T14:43:27;19.80;99.90
7720;DHT22;3902;49.474;8.616;2023-05-10T14:45:53;19.60;99.90
7720;DHT22;3902;49.474;8.616;2023-05-10T14:48:19;19.70;99.90
7720;DHT22;3902;49.474;8.616;2023-05-10T14:50:46;19.60;99.90
7720;DHT22;3902;49.474;8.616;2023-05-10T14:53:12;19.60;99.90
7720;DHT22;3902;49.474;8.616;2023-05-10T14:55:37;19.60;99.90
7720;DHT22;3902;49.474;8.616;2023-05-10T14:58:03;19.60;99.90
7720;DHT22;3902;49.474;8.616;2023-05-10T15:00:29;19.60;99.90
7720;DHT22;3902;49.474;8.616;2023-05-10T15:02:55;19.50;99.90
7720;DHT22;3902;49.474;8.616;2023-05-10T15:05:21;19.40;99.90
7720;DHT22;3902;49.474;8.616;2023-05-10T15:07:47;19.30;99.90
7720;DHT22;3902;49.474;8.616;2023-05-10T15:10:12;19.40;99.90
7720;DHT22;3902;49.474;8.616;2023-05-10T15:12:39;19.50;99.90
7720;DHT22;3902;49.474;8.616;2023-05-10T15:15:05;19.40;99.90
7720;DHT22;3902;49.474;8.616;2023-05-10T15:17:31;19.30;99.90
7720;DHT22;3902;49.474;8.616;2023-05-10T15:19:57;19.40;99.90
7720;DHT22;3902;49.474;8.616;2023-05-10T15:22:22;19.20;99.90
7720;DHT22;3902;49.474;8.616;2023-05-10T15:24:48;19.40;99.90
7720;DHT22;3902;49.474;8.616;2023-05-10T15:27:13;19.40;99.90
7720;DHT22;3902;49.474;8.616;2023-05-10T15:29:39;19.40;99.90
7720;DHT22;3902;49.474;8.616;2023-05-10T15:32:04;19.40;99.90
7720;DHT22;3902;49.474;8.616;2023-05-10T15:34:30;19.40;99.90
7720;DHT22;3902;49.474;8.616;2023-05-10T15:36:55;19.30;99.90
7720;DHT22;3902;49.474;8.616;2023-05-10T15:39:21;19.40;99.90
7720;DHT22;3902;49.474;8.616;2023-05-10T15:41:47;19.40;99.90
7720;DHT22;3902;49.474;8.616;2023-05-10T15:44:12;19.40;99.90
7720;DHT22;3902;49.474;8.616;2023-05-10T15:46:38;19.40;99.90
7720;DHT22;3902;49.474;8.616;2023-05-10T15:49:04;19.20;99.90
7720;DHT22;3902;49.474;8.616;2023-05-10T15:51:31;19.20;99.90
7720;DHT22;3902;49.474;8.616;2023-05-10T15:53:58;19.30;99.90
7720;DHT22;3902;49.474;8.616;2023-05-10T15:56:23;19.40;99.90
7720;DHT22;3902;49.474;8.616;2023-05-10T15:58:49;19.40;99.90
7720;DHT22;3902;49.474;8.616;2023-05-10T16:01:14;19.60;99.90
7720;DHT22;3902;49.474;8.616;2023-05-10T16:03:40;19.40;99.90
7720;DHT22;3902;49.474;8.616;2023-05-10T16:06:06;19.30;99.90
7720;DHT22;3902;49.474;8.616;2023-05-10T16:08:31;19.30;99.90
7720;DHT22;3902;49.474;8.616;2023-05-10T16:11:00;19.30;99.90
7720;DHT22;3902;49.474;8.616;2023-05-10T16:13:25;19.40;99.90
7720;DHT22;3902;49.474;8.616;2023-05-10T16:15:51;19.30;99.90
7720;DHT22;3902;49.474;8.616;2023-05-10T16:18:17;19.30;99.90
7720;DHT22;3902;49.474;8.616;2023-05-10T16:20:43;19.30;99.90
7720;DHT22;3902;49.474;8.616;2023-05-10T16:23:09;19.30;99.90
7720;DHT22;3902;49.474;8.616;2023-05-10T16:25:35;19.20;99.90